createdAt,value
2018-05-18T00:00:52.972Z,25.55
2018-05-18T00:03:19.716Z,15.93
2018-05-18T00:05:46.350Z,22.52
2018-05-18T00:08:12.990Z,19.17
2018-05-18T00:10:39.618Z,21.80
2018-05-18T00:13:06.268Z,17.40
2018-05-18T00:15:32.894Z,21.17
2018-05-18T00:17:59.553Z,25.83
2018-05-18T00:20:26.198Z,14.57
2018-05-18T00:22:52.927Z,22.33
2018-05-18T00:25:19.583Z,16.17
2018-05-18T00:27:46.216Z,16.25
2018-05-18T00:30:12.847Z,30.12
2018-05-18T00:32:39.488Z,25.58
2018-05-18T00:35:06.119Z,21.62
2018-05-18T00:37:32.759Z,27.15
2018-05-18T00:39:59.485Z,26.62
2018-05-18T00:42:26.043Z,19.42
2018-05-18T00:44:52.778Z,19.83
2018-05-18T00:47:19.423Z,20.20
2018-05-18T00:49:46.067Z,29.50
2018-05-18T00:52:12.698Z,20.60
2018-05-18T00:54:39.327Z,20.75
2018-05-18T00:57:05.972Z,17.92
2018-05-18T00:59:32.602Z,20.10
2018-05-18T01:01:59.260Z,15.32
2018-05-18T01:04:26.031Z,21.85
2018-05-18T01:06:52.663Z,17.65
2018-05-18T01:09:19.379Z,26.35
2018-05-18T01:11:46.114Z,28.45
2018-05-18T01:14:12.754Z,21.40
2018-05-18T01:16:39.401Z,16.27
2018-05-18T01:19:06.031Z,18.75
2018-05-18T01:21:32.679Z,18.00
2018-05-18T01:23:59.419Z,20.05
2018-05-18T01:26:26.071Z,20.25
2018-05-18T01:28:52.705Z,18.05
2018-05-18T01:31:19.338Z,19.12
2018-05-18T01:33:45.990Z,20.08
2018-05-18T01:36:12.628Z,17.05
2018-05-18T01:38:39.345Z,16.42
2018-05-18T01:41:05.975Z,18.80
2018-05-18T01:43:32.611Z,20.35
2018-05-18T01:45:59.268Z,14.82
2018-05-18T01:48:25.894Z,18.85
2018-05-18T01:50:52.543Z,17.23
2018-05-18T01:53:19.179Z,19.83
2018-05-18T01:55:45.827Z,16.77
2018-05-18T01:58:12.466Z,21.08
2018-05-18T02:00:39.095Z,26.02
2018-05-18T02:03:05.841Z,15.60
2018-05-18T02:05:32.488Z,23.70
2018-05-18T02:07:59.231Z,17.92
2018-05-18T02:10:25.971Z,17.85
2018-05-18T02:12:52.609Z,16.95
2018-05-18T02:15:19.300Z,22.73
2018-05-18T02:17:45.931Z,20.65
2018-05-18T02:20:12.636Z,20.42
2018-05-18T02:22:39.362Z,17.92
2018-05-18T02:25:06.061Z,20.67
2018-05-18T02:27:32.761Z,29.92
2018-05-18T02:29:59.382Z,18.67
2018-05-18T02:32:26.023Z,26.23
2018-05-18T02:34:52.767Z,30.75
2018-05-18T02:37:19.395Z,20.92
2018-05-18T02:39:46.047Z,22.83
2018-05-18T02:42:12.796Z,25.17
2018-05-18T02:44:39.423Z,16.10
2018-05-18T02:47:06.068Z,19.42
2018-05-18T02:49:32.711Z,28.75
2018-05-18T02:51:59.359Z,23.62
2018-05-18T02:54:26.094Z,19.80
2018-05-18T02:56:52.736Z,18.65
2018-05-18T02:59:19.378Z,24.08
2018-05-18T03:01:46.025Z,22.37
2018-05-18T03:04:12.753Z,19.65
2018-05-18T03:06:39.405Z,18.85
2018-05-18T03:09:06.130Z,26.77
2018-05-18T03:11:32.868Z,29.35
2018-05-18T03:13:59.502Z,28.05
2018-05-18T03:16:26.159Z,22.42
2018-05-18T03:18:52.782Z,19.73
2018-05-18T03:21:19.427Z,20.62
2018-05-18T03:23:46.164Z,28.80
2018-05-18T03:26:12.799Z,23.20
2018-05-18T03:28:39.438Z,29.87
2018-05-18T03:31:06.085Z,16.37
2018-05-18T03:33:32.827Z,27.55
2018-05-18T03:35:59.463Z,20.15
2018-05-18T03:38:26.094Z,17.37
2018-05-18T03:40:52.854Z,21.67
2018-05-18T03:43:19.491Z,16.45
2018-05-18T03:45:46.123Z,14.48
2018-05-18T03:48:12.768Z,23.08
2018-05-18T03:50:39.394Z,21.15
2018-05-18T03:53:06.043Z,19.73
2018-05-18T03:55:32.783Z,32.70
2018-05-18T03:57:59.524Z,22.65
2018-05-18T04:00:26.158Z,27.00
2018-05-18T04:02:58.535Z,31.40
2018-05-18T04:05:31.241Z,28.92
2018-05-18T04:08:18.518Z,17.50
2018-05-18T04:10:45.166Z,21.90
2018-05-18T04:13:11.818Z,24.20
2018-05-18T04:15:38.515Z,18.48
2018-05-18T04:18:05.197Z,21.58
2018-05-18T04:20:31.827Z,23.08
2018-05-18T04:22:58.577Z,15.73
2018-05-18T04:25:25.224Z,24.67
2018-05-18T04:27:51.968Z,26.67
2018-05-18T04:30:18.709Z,24.75
2018-05-18T04:32:45.368Z,23.90
2018-05-18T04:35:12.083Z,18.40
2018-05-18T04:37:38.707Z,22.02
2018-05-18T04:40:05.363Z,17.98
2018-05-18T04:42:32.115Z,20.00
2018-05-18T04:44:58.845Z,21.70
2018-05-18T04:47:25.508Z,18.37
2018-05-18T04:49:52.226Z,22.00
2018-05-18T04:52:18.859Z,18.85
2018-05-18T04:54:45.508Z,24.58
2018-05-18T04:57:12.139Z,23.98
2018-05-18T04:59:38.771Z,22.60
2018-05-18T05:02:05.408Z,27.58
2018-05-18T05:04:32.037Z,30.40
2018-05-18T05:06:58.667Z,24.95
2018-05-18T05:09:25.334Z,40.20
2018-05-18T05:11:51.963Z,25.35
2018-05-18T05:14:18.620Z,28.20
2018-05-18T05:16:45.262Z,23.73
2018-05-18T05:19:11.891Z,24.10
2018-05-18T05:21:38.525Z,31.42
2018-05-18T05:24:05.180Z,32.50
2018-05-18T05:26:31.837Z,19.25
2018-05-18T05:28:58.583Z,26.98
2018-05-18T05:31:25.211Z,27.37
2018-05-18T05:33:51.931Z,23.35
2018-05-18T05:36:18.576Z,19.02
2018-05-18T05:38:45.316Z,20.98
2018-05-18T05:41:12.055Z,28.17
2018-05-18T05:43:38.719Z,20.05
2018-05-18T05:46:05.359Z,21.10
2018-05-18T05:48:32.003Z,22.23
2018-05-18T05:50:58.715Z,30.95
2018-05-18T05:53:25.360Z,20.60
2018-05-18T05:55:51.986Z,23.75
2018-05-18T05:58:18.635Z,20.23
2018-05-18T06:00:45.275Z,20.45
2018-05-18T06:03:11.908Z,25.85
2018-05-18T06:05:38.555Z,29.92
2018-05-18T06:08:05.196Z,17.10
2018-05-18T06:10:31.831Z,19.17
2018-05-18T06:12:58.470Z,23.77
2018-05-18T06:15:25.162Z,23.42
2018-05-18T06:17:51.892Z,25.50
2018-05-18T06:20:18.519Z,24.55
2018-05-18T06:22:45.143Z,25.70
2018-05-18T06:25:11.785Z,21.87
2018-05-18T06:27:38.513Z,24.80
2018-05-18T06:30:05.170Z,20.33
2018-05-18T06:32:31.885Z,28.60
2018-05-18T06:34:58.607Z,15.65
2018-05-18T06:37:25.187Z,25.23
2018-05-18T06:39:51.929Z,21.40
2018-05-18T06:42:18.559Z,23.17
2018-05-18T06:44:45.198Z,16.23
2018-05-18T06:47:11.822Z,18.98
2018-05-18T06:49:38.446Z,26.02
2018-05-18T06:52:05.224Z,23.48
2018-05-18T06:54:31.967Z,17.62
2018-05-18T06:56:58.600Z,16.45
2018-05-18T06:59:25.242Z,19.77
2018-05-18T07:01:51.935Z,16.85
2018-05-18T07:04:18.562Z,18.52
2018-05-18T07:06:45.243Z,17.85
2018-05-18T07:09:11.902Z,20.95
2018-05-18T07:11:38.645Z,21.30
2018-05-18T07:14:05.363Z,23.27
2018-05-18T07:16:32.076Z,17.65
2018-05-18T07:18:58.641Z,30.52
2018-05-18T07:21:25.382Z,23.70
2018-05-18T07:23:52.125Z,21.40
2018-05-18T07:26:18.871Z,17.27
2018-05-18T07:28:45.519Z,19.15
2018-05-18T07:31:12.167Z,20.12
2018-05-18T07:33:38.883Z,24.55
2018-05-18T07:36:05.647Z,14.45
2018-05-18T07:38:32.274Z,20.55
2018-05-18T07:40:58.913Z,18.62
2018-05-18T07:43:25.558Z,19.08
2018-05-18T07:45:52.182Z,22.98
2018-05-18T07:48:18.801Z,19.02
2018-05-18T07:50:45.452Z,19.58
2018-05-18T07:53:12.088Z,19.90
2018-05-18T07:55:38.743Z,19.95
2018-05-18T07:58:05.488Z,22.33
2018-05-18T08:00:32.113Z,21.83
2018-05-18T08:02:58.743Z,15.95
2018-05-18T08:05:25.395Z,29.27
2018-05-18T08:07:52.136Z,17.45
2018-05-18T08:10:18.709Z,18.50
2018-05-18T08:12:45.340Z,17.62
2018-05-18T08:15:12.083Z,20.77
2018-05-18T08:17:38.694Z,18.85
2018-05-18T08:20:05.327Z,17.02
2018-05-18T08:22:32.076Z,14.32
2018-05-18T08:24:58.703Z,14.65
2018-05-18T08:27:25.346Z,19.02
2018-05-18T08:29:51.982Z,18.85
2018-05-18T08:32:18.626Z,16.58
2018-05-18T08:34:45.270Z,24.83
2018-05-18T08:37:11.897Z,18.65
2018-05-18T08:39:38.518Z,17.77
2018-05-18T08:42:05.159Z,18.60
2018-05-18T08:44:32.004Z,17.27
2018-05-18T08:46:58.471Z,20.37
2018-05-18T08:49:25.121Z,14.55
2018-05-18T08:51:51.772Z,14.02
2018-05-18T08:54:18.405Z,19.30
2018-05-18T08:56:45.044Z,19.60
2018-05-18T08:59:11.670Z,20.65
2018-05-18T09:01:38.405Z,15.35
2018-05-18T09:04:05.038Z,16.58
2018-05-18T09:06:31.662Z,18.50
2018-05-18T09:08:58.373Z,13.55
2018-05-18T09:11:24.954Z,17.62
2018-05-18T09:13:51.594Z,12.88
2018-05-18T09:16:18.223Z,16.67
2018-05-18T09:18:44.846Z,12.10
2018-05-18T09:21:11.474Z,13.25
2018-05-18T09:23:38.159Z,17.40
2018-05-18T09:26:04.907Z,18.37
2018-05-18T09:28:31.531Z,15.88
2018-05-18T09:30:58.165Z,18.83
2018-05-18T09:33:24.807Z,11.75
2018-05-18T09:35:51.440Z,14.95
2018-05-18T09:38:18.098Z,14.57
2018-05-18T09:40:44.831Z,13.30
2018-05-18T09:43:11.475Z,9.55
2018-05-18T09:45:38.214Z,14.65
2018-05-18T09:48:04.959Z,12.98
2018-05-18T09:50:31.582Z,16.67
2018-05-18T09:52:58.239Z,14.68
2018-05-18T09:55:25.848Z,10.93
2018-05-18T09:57:52.461Z,17.02
2018-05-18T10:00:19.183Z,15.15
2018-05-18T10:02:45.835Z,18.60
2018-05-18T10:05:12.474Z,12.48
2018-05-18T10:07:39.195Z,11.60
2018-05-18T10:10:05.823Z,14.82
2018-05-18T10:12:32.472Z,16.05
2018-05-18T10:14:59.101Z,14.75
2018-05-18T10:17:25.727Z,17.60
2018-05-18T10:19:52.519Z,11.98
2018-05-18T10:22:19.219Z,14.18
2018-05-18T10:24:45.874Z,9.05
2018-05-18T10:27:12.521Z,16.98
2018-05-18T10:29:39.144Z,11.95
2018-05-18T10:32:05.774Z,17.23
2018-05-18T10:34:32.427Z,12.70
2018-05-18T10:36:59.067Z,15.00
2018-05-18T10:39:25.714Z,17.35
2018-05-18T10:41:52.339Z,15.07
2018-05-18T10:44:18.979Z,10.63
2018-05-18T10:46:45.622Z,13.95
2018-05-18T10:49:12.290Z,15.63
2018-05-18T10:51:39.003Z,15.65
2018-05-18T10:54:05.643Z,13.15
2018-05-18T10:56:32.291Z,12.07
2018-05-18T10:58:58.934Z,19.37
2018-05-18T11:01:25.657Z,15.98
2018-05-18T11:03:52.295Z,18.83
2018-05-18T11:06:19.049Z,17.37
2018-05-18T11:08:45.666Z,14.38
2018-05-18T11:11:12.350Z,10.10
2018-05-18T11:13:39.091Z,13.07
2018-05-18T11:16:05.815Z,13.10
2018-05-18T11:18:32.451Z,11.00
2018-05-18T11:20:59.186Z,12.60
2018-05-18T11:23:25.842Z,13.75
2018-05-18T11:25:52.489Z,13.90
2018-05-18T11:28:19.106Z,15.95
2018-05-18T11:30:45.751Z,11.43
2018-05-18T11:33:12.492Z,10.45
2018-05-18T11:35:39.130Z,11.90
2018-05-18T11:38:05.947Z,16.40
2018-05-18T11:40:34.273Z,12.93
2018-05-18T11:43:01.943Z,12.98
2018-05-18T11:45:29.451Z,12.77
2018-05-18T11:47:56.886Z,11.93
2018-05-18T11:50:23.572Z,11.43
2018-05-18T11:52:50.315Z,17.00
2018-05-18T11:55:16.938Z,14.30
2018-05-18T11:57:43.691Z,13.32
2018-05-18T12:00:10.776Z,17.55
2018-05-18T12:02:37.478Z,15.88
2018-05-18T12:05:04.126Z,11.73
2018-05-18T12:07:30.864Z,14.30
2018-05-18T12:09:57.514Z,10.05
2018-05-18T12:12:24.145Z,17.35
2018-05-18T12:14:50.782Z,12.07
2018-05-18T12:17:17.411Z,10.90
2018-05-18T12:19:44.079Z,14.40
2018-05-18T12:22:10.727Z,9.50
2018-05-18T12:24:37.356Z,9.90
2018-05-18T12:27:04.013Z,13.77
2018-05-18T12:29:30.740Z,10.43
2018-05-18T12:31:57.372Z,9.33
2018-05-18T12:34:23.997Z,15.43
2018-05-18T12:36:50.726Z,9.20
2018-05-18T12:39:17.355Z,7.57
2018-05-18T12:41:43.997Z,10.33
2018-05-18T12:44:10.680Z,12.13
2018-05-18T12:46:37.303Z,11.47
2018-05-18T12:49:04.036Z,9.40
2018-05-18T12:51:30.671Z,13.90
2018-05-18T12:53:57.325Z,7.73
2018-05-18T12:56:23.950Z,13.47
2018-05-18T12:58:50.686Z,9.20
2018-05-18T13:01:17.330Z,14.83
2018-05-18T13:03:43.967Z,20.00
2018-05-18T13:06:10.590Z,13.03
2018-05-18T13:08:37.233Z,14.17
2018-05-18T13:11:03.854Z,10.13
2018-05-18T13:13:30.528Z,9.93
2018-05-18T13:15:57.269Z,9.20
2018-05-18T13:18:24.019Z,7.43
2018-05-18T13:20:50.654Z,10.93
2018-05-18T13:23:17.347Z,9.80
2018-05-18T13:25:43.983Z,5.83
2018-05-18T13:28:10.628Z,9.03
2018-05-18T13:30:37.314Z,9.37
2018-05-18T13:33:03.959Z,10.77
2018-05-18T13:35:30.683Z,8.53
2018-05-18T13:37:57.319Z,11.40
2018-05-18T13:40:23.947Z,10.90
2018-05-18T13:42:50.593Z,17.37
2018-05-18T13:45:17.235Z,13.33
2018-05-18T13:47:43.857Z,7.80
2018-05-18T13:50:10.499Z,9.47
2018-05-18T13:52:37.129Z,8.43
2018-05-18T13:55:03.763Z,8.73
2018-05-18T13:57:30.448Z,10.60
2018-05-18T13:59:57.184Z,10.17
2018-05-18T14:02:23.925Z,14.63
2018-05-18T14:04:50.565Z,8.70
2018-05-18T14:07:17.189Z,11.87
2018-05-18T14:09:43.827Z,9.70
2018-05-18T14:12:10.470Z,10.63
2018-05-18T14:14:37.134Z,8.13
2018-05-18T14:17:03.777Z,8.83
2018-05-18T14:19:30.507Z,10.10
2018-05-18T14:21:57.149Z,8.90
2018-05-18T14:24:23.871Z,9.23
2018-05-18T14:26:50.502Z,9.83
2018-05-18T14:29:17.127Z,6.80
2018-05-18T14:31:43.761Z,6.20
2018-05-18T14:34:10.383Z,8.60
2018-05-18T14:36:37.022Z,10.60
2018-05-18T14:39:03.648Z,6.93
2018-05-18T14:41:30.268Z,8.47
2018-05-18T14:43:56.995Z,6.03
2018-05-18T14:46:23.545Z,5.67
2018-05-18T14:48:50.274Z,16.30
2018-05-18T14:51:17.005Z,8.27
2018-05-18T14:53:43.751Z,6.03
2018-05-18T14:56:10.374Z,7.97
2018-05-18T14:58:37.048Z,8.50
2018-05-18T15:01:03.663Z,7.90
2018-05-18T15:03:30.412Z,11.43
2018-05-18T15:05:57.155Z,11.23
2018-05-18T15:08:23.788Z,8.37
2018-05-18T15:10:50.452Z,9.77
2018-05-18T15:13:17.121Z,9.40
2018-05-18T15:15:43.835Z,6.10
2018-05-18T15:18:10.449Z,7.13
2018-05-18T15:20:37.112Z,7.87
2018-05-18T15:23:03.731Z,7.17
2018-05-18T15:25:30.376Z,9.80
2018-05-18T15:27:56.990Z,7.30
2018-05-18T15:30:23.635Z,6.93
2018-05-18T15:32:50.296Z,6.07
2018-05-18T15:35:17.049Z,6.53
2018-05-18T15:37:43.686Z,8.37
2018-05-18T15:40:10.311Z,7.80
2018-05-18T15:42:37.057Z,10.00
2018-05-18T15:45:03.663Z,6.47
2018-05-18T15:47:30.279Z,8.60
2018-05-18T15:49:56.915Z,6.30
2018-05-18T15:52:23.530Z,6.80
2018-05-18T15:54:50.156Z,9.17
2018-05-18T15:57:16.884Z,9.53
2018-05-18T15:59:43.507Z,9.27
2018-05-18T16:02:10.135Z,8.03
2018-05-18T16:04:36.759Z,6.70
2018-05-18T16:07:03.431Z,5.90
2018-05-18T16:09:30.055Z,9.80
2018-05-18T16:11:56.711Z,5.80
2018-05-18T16:14:23.349Z,6.20
2018-05-18T16:16:50.087Z,6.93
2018-05-18T16:19:16.719Z,6.10
2018-05-18T16:21:43.377Z,8.63
2018-05-18T16:24:10.112Z,5.20
2018-05-18T16:26:36.747Z,9.00
2018-05-18T16:29:03.396Z,11.17
2018-05-18T16:31:30.019Z,11.07
2018-05-18T16:33:56.656Z,6.23
2018-05-18T16:36:23.282Z,11.50
2018-05-18T16:38:49.936Z,8.00
2018-05-18T16:41:16.566Z,11.12
2018-05-18T16:43:43.196Z,8.25
2018-05-18T16:46:09.876Z,10.50
2018-05-18T16:48:36.516Z,7.30
2018-05-18T16:51:03.147Z,10.75
2018-05-18T16:53:29.796Z,10.93
2018-05-18T16:55:56.426Z,11.18
2018-05-18T16:58:23.056Z,8.35
2018-05-18T17:00:49.693Z,6.68
2018-05-18T17:03:16.331Z,7.93
2018-05-18T17:05:42.979Z,10.57
2018-05-18T17:08:09.604Z,11.73
2018-05-18T17:10:36.251Z,9.32
2018-05-18T17:13:02.870Z,9.30
2018-05-18T17:15:29.498Z,8.73
2018-05-18T17:17:56.167Z,10.30
2018-05-18T17:20:22.802Z,10.77
2018-05-18T17:22:49.419Z,8.57
2018-05-18T17:25:16.060Z,7.18
2018-05-18T17:27:42.686Z,10.32
2018-05-18T17:30:09.328Z,8.82
2018-05-18T17:32:36.011Z,8.63
2018-05-18T17:35:02.638Z,10.63
2018-05-18T17:37:29.279Z,9.00
2018-05-18T17:39:55.907Z,6.93
2018-05-18T17:42:22.700Z,8.77
2018-05-18T17:44:49.225Z,9.98
2018-05-18T17:47:15.934Z,7.50
2018-05-18T17:49:42.566Z,9.65
2018-05-18T17:52:09.203Z,17.33
2018-05-18T17:54:35.852Z,14.65
2018-05-18T17:57:02.491Z,9.02
2018-05-18T17:59:29.119Z,7.25
2018-05-18T18:01:55.743Z,7.55
2018-05-18T18:04:22.392Z,15.30
2018-05-18T18:06:49.032Z,11.98
2018-05-18T18:09:15.666Z,8.00
2018-05-18T18:11:42.340Z,11.73
2018-05-18T18:14:09.087Z,8.60
2018-05-18T18:16:35.628Z,9.90
2018-05-18T18:19:02.277Z,9.50
2018-05-18T18:21:28.899Z,10.40
2018-05-18T18:23:55.534Z,14.65
2018-05-18T18:26:22.272Z,9.50
2018-05-18T18:28:49.064Z,11.40
2018-05-18T18:31:15.746Z,10.20
2018-05-18T18:33:42.367Z,7.55
2018-05-18T18:36:09.121Z,12.32
2018-05-18T18:38:35.788Z,11.57
2018-05-18T18:41:02.426Z,7.78
2018-05-18T18:43:29.047Z,8.32
2018-05-18T18:45:55.688Z,9.20
2018-05-18T18:48:22.301Z,9.57
2018-05-18T18:50:48.923Z,12.80
2018-05-18T18:53:15.558Z,19.45
2018-05-18T18:55:42.250Z,12.50
2018-05-18T18:58:08.887Z,11.05
2018-05-18T19:00:35.520Z,12.23
2018-05-18T19:03:02.269Z,9.77
2018-05-18T19:05:28.903Z,10.00
2018-05-18T19:07:55.592Z,10.38
2018-05-18T19:10:22.191Z,11.98
2018-05-18T19:12:48.839Z,10.50
2018-05-18T19:15:15.472Z,9.40
2018-05-18T19:17:42.094Z,13.68
2018-05-18T19:20:08.732Z,10.80
2018-05-18T19:22:35.370Z,10.43
2018-05-18T19:25:02.044Z,11.38
2018-05-18T19:27:28.754Z,19.37
2018-05-18T19:29:55.497Z,11.70
2018-05-18T19:32:22.167Z,12.05
2018-05-18T19:34:48.883Z,15.05
2018-05-18T19:37:15.631Z,16.02
2018-05-18T19:39:42.274Z,10.30
2018-05-18T19:42:08.976Z,11.75
2018-05-18T19:44:35.614Z,12.65
2018-05-18T19:47:02.257Z,16.73
2018-05-18T19:49:28.915Z,11.65
2018-05-18T19:51:55.531Z,9.88
2018-05-18T19:54:22.194Z,13.93
2018-05-18T19:56:48.840Z,13.73
2018-05-18T19:59:15.467Z,8.45
2018-05-18T20:01:42.106Z,13.82
2018-05-18T20:04:08.739Z,12.82
2018-05-18T20:06:35.379Z,12.00
2018-05-18T20:09:02.007Z,14.77
2018-05-18T20:11:28.681Z,14.45
2018-05-18T20:13:55.303Z,14.38
2018-05-18T20:16:21.944Z,14.57
2018-05-18T20:18:48.595Z,11.68
2018-05-18T20:21:15.222Z,17.30
2018-05-18T20:23:41.862Z,15.77
2018-05-18T20:26:08.507Z,15.25
2018-05-18T20:28:35.244Z,12.30
2018-05-18T20:31:01.883Z,13.30
2018-05-18T20:33:28.627Z,16.90
2018-05-18T20:35:55.271Z,15.88
2018-05-18T20:38:21.931Z,15.80
2018-05-18T20:40:48.651Z,14.40
2018-05-18T20:43:15.280Z,17.40
2018-05-18T20:45:42.028Z,13.88
2018-05-18T20:48:08.655Z,15.85
2018-05-18T20:50:35.295Z,17.25
2018-05-18T20:53:01.940Z,16.15
2018-05-18T20:55:28.682Z,21.67
2018-05-18T20:57:55.305Z,25.58
2018-05-18T21:00:21.935Z,16.80
2018-05-18T21:02:48.714Z,14.60
2018-05-18T21:05:15.456Z,19.17
2018-05-18T21:07:42.101Z,16.58
2018-05-18T21:10:08.723Z,19.62
2018-05-18T21:12:35.346Z,20.23
2018-05-18T21:15:01.987Z,15.43
2018-05-18T21:17:28.620Z,16.15
2018-05-18T21:19:55.257Z,19.77
2018-05-18T21:22:21.896Z,17.95
2018-05-18T21:24:48.551Z,17.10
2018-05-18T21:27:15.178Z,18.73
2018-05-18T21:29:41.831Z,22.75
2018-05-18T21:32:08.481Z,20.23
2018-05-18T21:34:35.129Z,21.60
2018-05-18T21:37:01.856Z,16.37
2018-05-18T21:39:28.506Z,23.80
2018-05-18T21:41:55.136Z,20.30
2018-05-18T21:44:21.779Z,22.45
2018-05-18T21:46:48.428Z,13.70
2018-05-18T21:49:15.054Z,20.25
2018-05-18T21:51:41.695Z,22.37
2018-05-18T21:54:08.438Z,17.20
2018-05-18T21:56:35.083Z,19.02
2018-05-18T21:59:01.714Z,19.40
2018-05-18T22:01:28.356Z,17.77
2018-05-18T22:03:54.984Z,17.42
2018-05-18T22:06:21.630Z,17.05
2018-05-18T22:08:48.377Z,18.65
2018-05-18T22:11:15.027Z,15.45
2018-05-18T22:13:41.754Z,20.23
2018-05-18T22:16:08.404Z,18.85
2018-05-18T22:18:35.135Z,16.60
2018-05-18T22:21:01.763Z,18.20
2018-05-18T22:23:28.519Z,20.95
2018-05-18T22:25:55.152Z,17.05
2018-05-18T22:28:21.799Z,15.73
2018-05-18T22:30:48.423Z,16.30
2018-05-18T22:33:15.175Z,15.20
2018-05-18T22:35:41.810Z,16.08
2018-05-18T22:38:08.559Z,17.73
2018-05-18T22:40:35.300Z,21.83
2018-05-18T22:43:01.937Z,16.95
2018-05-18T22:45:28.676Z,18.35
2018-05-18T22:47:55.304Z,18.83
2018-05-18T22:50:21.937Z,15.73
2018-05-18T22:52:48.593Z,21.83
2018-05-18T22:55:15.231Z,30.70
2018-05-18T22:57:41.967Z,16.58
2018-05-18T23:00:08.601Z,18.92
2018-05-18T23:02:35.350Z,16.37
2018-05-18T23:05:01.996Z,16.35
2018-05-18T23:07:28.744Z,16.65
2018-05-18T23:09:55.404Z,14.90
2018-05-18T23:12:22.046Z,17.35
2018-05-18T23:14:48.699Z,18.98
2018-05-18T23:17:15.327Z,16.42
2018-05-18T23:19:42.040Z,19.85
2018-05-18T23:22:08.695Z,17.35
2018-05-18T23:24:35.323Z,21.33
2018-05-18T23:27:01.954Z,20.70
2018-05-18T23:29:28.608Z,19.02
2018-05-18T23:31:55.380Z,21.70
2018-05-18T23:34:22.087Z,18.05
2018-05-18T23:36:48.814Z,21.50
2018-05-18T23:39:15.546Z,17.65
2018-05-18T23:41:42.191Z,21.90
2018-05-18T23:44:08.836Z,19.75
2018-05-18T23:46:35.463Z,19.42
2018-05-18T23:49:02.093Z,16.02
2018-05-18T23:51:28.740Z,18.10
2018-05-18T23:53:55.370Z,19.52
2018-05-18T23:56:21.999Z,23.87
2018-05-18T23:58:48.646Z,24.02
